NKS911 KMCO-KEWR
Flight info
| Callsign | NKS911 |
|---|---|
| Flight time | 2h 7m |
| Altitude | 35000 |
| Route | FATHE4 VIYAP Q87 ALWZZ DCT OGRAE Q99 QUART PHLBO4 |
| Aircraft | A320/M-SDE3FGHIRWY/LB1 |
Departure
| Time | 2026-05-05 11:47 |
|---|---|
| Airport | Orlando International Airport (KMCO) |
Arrival
| Time | 2026-05-05 13:54 |
|---|---|
| Airport | Newark Liberty International Airport (KEWR) |
| Time | Latitude | Longitude | Altitude | Speed | Heading |
|---|---|---|---|---|---|
| 2026-05-05 11:27 | 28.42799 | -81.30012 | 95 ft | 0 kts | 309° |
| 2026-05-05 11:37 | 28.42791 | -81.30001 | 94 ft | 4 kts | 309° |
| 2026-05-05 11:37 | 28.42774 | -81.29977 | 97 ft | 4 kts | 309° |
| 2026-05-05 11:37 | 28.42757 | -81.29953 | 94 ft | 4 kts | 309° |
| 2026-05-05 11:37 | 28.42745 | -81.29937 | 94 ft | 4 kts | 309° |
| 2026-05-05 11:38 | 28.42731 | -81.29918 | 95 ft | 4 kts | 307° |
| 2026-05-05 11:38 | 28.42721 | -81.29895 | 94 ft | 4 kts | 251° |
| 2026-05-05 11:38 | 28.42735 | -81.29882 | 96 ft | 4 kts | 179° |
| 2026-05-05 11:38 | 28.42751 | -81.29882 | 94 ft | 0 kts | 179° |
| 2026-05-05 11:41 | 28.42728 | -81.29882 | 96 ft | 6 kts | 180° |
| 2026-05-05 11:41 | 28.42684 | -81.29882 | 94 ft | 7 kts | 180° |
| 2026-05-05 11:41 | 28.42627 | -81.29880 | 94 ft | 9 kts | 168° |
| 2026-05-05 11:41 | 28.42597 | -81.29822 | 96 ft | 10 kts | 87° |
| 2026-05-05 11:42 | 28.42594 | -81.29737 | 96 ft | 12 kts | 106° |
| 2026-05-05 11:42 | 28.42521 | -81.29702 | 95 ft | 13 kts | 177° |
| 2026-05-05 11:42 | 28.42420 | -81.29701 | 95 ft | 18 kts | 179° |
| 2026-05-05 11:42 | 28.42282 | -81.29700 | 94 ft | 21 kts | 179° |
| 2026-05-05 11:43 | 28.42130 | -81.29698 | 98 ft | 23 kts | 179° |
| 2026-05-05 11:43 | 28.41968 | -81.29696 | 97 ft | 24 kts | 179° |
| 2026-05-05 11:43 | 28.41796 | -81.29694 | 95 ft | 26 kts | 179° |
| 2026-05-05 11:43 | 28.41615 | -81.29693 | 96 ft | 27 kts | 179° |
| 2026-05-05 11:44 | 28.41444 | -81.29691 | 96 ft | 25 kts | 179° |
| 2026-05-05 11:44 | 28.41264 | -81.29689 | 95 ft | 26 kts | 179° |
| 2026-05-05 11:44 | 28.41083 | -81.29687 | 95 ft | 23 kts | 179° |
| 2026-05-05 11:44 | 28.40937 | -81.29685 | 95 ft | 16 kts | 179° |
| 2026-05-05 11:45 | 28.40845 | -81.29684 | 95 ft | 7 kts | 179° |
| 2026-05-05 11:45 | 28.40820 | -81.29655 | 94 ft | 6 kts | 98° |
| 2026-05-05 11:45 | 28.40821 | -81.29595 | 95 ft | 9 kts | 89° |
| 2026-05-05 11:45 | 28.40842 | -81.29558 | 93 ft | 6 kts | 9° |
| 2026-05-05 11:46 | 28.40864 | -81.29558 | 93 ft | 0 kts | 359° |
| 2026-05-05 11:46 | 28.40942 | -81.29560 | 94 ft | 41 kts | 359° |
| 2026-05-05 11:46 | 28.41452 | -81.29565 | 98 ft | 103 kts | 359° |
| 2026-05-05 11:46 | 28.42338 | -81.29574 | 94 ft | 150 kts | 359° |
| 2026-05-05 11:47 | 28.43475 | -81.29589 | 389 ft | 165 kts | 360° |
| 2026-05-05 11:47 | 28.44639 | -81.29582 | 929 ft | 172 kts | 12° |
| 2026-05-05 11:47 | 28.45738 | -81.29042 | 1458 ft | 176 kts | 35° |
| 2026-05-05 11:47 | 28.46827 | -81.28270 | 1767 ft | 196 kts | 31° |
| 2026-05-05 11:48 | 28.49492 | -81.26552 | 2383 ft | 244 kts | 31° |
| 2026-05-05 11:48 | 28.51031 | -81.25598 | 3004 ft | 258 kts | 25° |
| 2026-05-05 11:48 | 28.52818 | -81.25196 | 3810 ft | 267 kts | 6° |
| 2026-05-05 11:49 | 28.54669 | -81.25074 | 4669 ft | 271 kts | 3° |
| 2026-05-05 11:49 | 28.56552 | -81.25083 | 5501 ft | 276 kts | 359° |
| 2026-05-05 11:49 | 28.58479 | -81.25178 | 6329 ft | 279 kts | 354° |
| 2026-05-05 11:49 | 28.60418 | -81.25450 | 7138 ft | 282 kts | 352° |
| 2026-05-05 11:50 | 28.62379 | -81.25779 | 7916 ft | 287 kts | 351° |
| 2026-05-05 11:50 | 28.64373 | -81.26109 | 8657 ft | 292 kts | 351° |
| 2026-05-05 11:50 | 28.66393 | -81.26417 | 9394 ft | 295 kts | 352° |
| 2026-05-05 11:50 | 28.68446 | -81.26715 | 10107 ft | 299 kts | 352° |
| 2026-05-05 11:51 | 28.70560 | -81.27011 | 10447 ft | 318 kts | 352° |
| 2026-05-05 11:51 | 28.72806 | -81.27318 | 10601 ft | 340 kts | 352° |
| 2026-05-05 11:51 | 28.75240 | -81.27644 | 10981 ft | 353 kts | 352° |
| 2026-05-05 11:51 | 28.77666 | -81.27967 | 11591 ft | 357 kts | 352° |
| 2026-05-05 11:52 | 28.80147 | -81.28299 | 12237 ft | 361 kts | 351° |
| 2026-05-05 11:52 | 28.82676 | -81.28642 | 12895 ft | 363 kts | 351° |
| 2026-05-05 11:52 | 28.85167 | -81.28970 | 13506 ft | 366 kts | 352° |
| 2026-05-05 11:52 | 28.87712 | -81.29232 | 14116 ft | 369 kts | 353° |
| 2026-05-05 11:53 | 28.90283 | -81.29447 | 14715 ft | 372 kts | 353° |
| 2026-05-05 11:53 | 28.92872 | -81.29645 | 15296 ft | 374 kts | 353° |
| 2026-05-05 11:53 | 28.95478 | -81.29840 | 15855 ft | 377 kts | 353° |
| 2026-05-05 11:53 | 28.98101 | -81.30043 | 16406 ft | 379 kts | 352° |
| 2026-05-05 11:54 | 29.00738 | -81.30269 | 16949 ft | 381 kts | 351° |
| 2026-05-05 11:54 | 29.03383 | -81.30545 | 17497 ft | 383 kts | 350° |
| 2026-05-05 11:54 | 29.06039 | -81.30852 | 18032 ft | 385 kts | 350° |
| 2026-05-05 11:54 | 29.08711 | -81.31168 | 18573 ft | 387 kts | 349° |
| 2026-05-05 11:55 | 29.11399 | -81.31479 | 19102 ft | 390 kts | 350° |
| 2026-05-05 11:55 | 29.14114 | -81.31717 | 19633 ft | 393 kts | 351° |
| 2026-05-05 11:55 | 29.16852 | -81.31886 | 20152 ft | 395 kts | 352° |
| 2026-05-05 11:55 | 29.19607 | -81.32017 | 20658 ft | 397 kts | 353° |
| 2026-05-05 11:56 | 29.22376 | -81.32143 | 21137 ft | 399 kts | 352° |
| 2026-05-05 11:56 | 29.25157 | -81.32282 | 21623 ft | 401 kts | 352° |
| 2026-05-05 11:56 | 29.27948 | -81.32438 | 22062 ft | 402 kts | 352° |
| 2026-05-05 11:56 | 29.30752 | -81.32604 | 22487 ft | 404 kts | 351° |
| 2026-05-05 11:57 | 29.33567 | -81.32775 | 22916 ft | 406 kts | 351° |
| 2026-05-05 11:57 | 29.36399 | -81.32948 | 23337 ft | 408 kts | 351° |
| 2026-05-05 11:57 | 29.39237 | -81.33122 | 23750 ft | 409 kts | 351° |
| 2026-05-05 11:57 | 29.42086 | -81.33297 | 24151 ft | 411 kts | 351° |
| 2026-05-05 11:58 | 29.44946 | -81.33471 | 24551 ft | 412 kts | 351° |
| 2026-05-05 11:58 | 29.47815 | -81.33645 | 24947 ft | 413 kts | 351° |
| 2026-05-05 11:58 | 29.50692 | -81.33819 | 25323 ft | 415 kts | 351° |
| 2026-05-05 11:58 | 29.53579 | -81.33994 | 25696 ft | 416 kts | 351° |
| 2026-05-05 11:59 | 29.56474 | -81.34170 | 26058 ft | 417 kts | 350° |
| 2026-05-05 11:59 | 29.59377 | -81.34348 | 26436 ft | 418 kts | 350° |
| 2026-05-05 11:59 | 29.62289 | -81.34525 | 26812 ft | 420 kts | 350° |
| 2026-05-05 11:59 | 29.65209 | -81.34702 | 27170 ft | 421 kts | 350° |
| 2026-05-05 12:00 | 29.68098 | -81.34872 | 27529 ft | 422 kts | 350° |
| 2026-05-05 12:00 | 29.71037 | -81.35040 | 27876 ft | 424 kts | 350° |
| 2026-05-05 12:00 | 29.73984 | -81.35204 | 28228 ft | 425 kts | 350° |
| 2026-05-05 12:00 | 29.76937 | -81.35366 | 28596 ft | 425 kts | 350° |
| 2026-05-05 12:01 | 29.79879 | -81.35528 | 29075 ft | 422 kts | 349° |
| 2026-05-05 12:01 | 29.82805 | -81.35691 | 29544 ft | 420 kts | 349° |
| 2026-05-05 12:01 | 29.85715 | -81.35857 | 30036 ft | 418 kts | 349° |
| 2026-05-05 12:01 | 29.88611 | -81.36024 | 30479 ft | 416 kts | 349° |
| 2026-05-05 12:02 | 29.91490 | -81.36191 | 30940 ft | 413 kts | 349° |
| 2026-05-05 12:02 | 29.94343 | -81.36354 | 31467 ft | 408 kts | 349° |
| 2026-05-05 12:02 | 29.97166 | -81.36513 | 32004 ft | 404 kts | 349° |
| 2026-05-05 12:02 | 29.99953 | -81.36668 | 32561 ft | 398 kts | 349° |
| 2026-05-05 12:03 | 30.02701 | -81.36823 | 33134 ft | 393 kts | 349° |
| 2026-05-05 12:03 | 30.05416 | -81.36979 | 33679 ft | 387 kts | 349° |
| 2026-05-05 12:03 | 30.08092 | -81.37134 | 34218 ft | 383 kts | 349° |
| 2026-05-05 12:03 | 30.10733 | -81.37285 | 34720 ft | 377 kts | 349° |
| 2026-05-05 12:04 | 30.13350 | -81.37435 | 35027 ft | 377 kts | 348° |
| 2026-05-05 12:04 | 30.15976 | -81.37589 | 35099 ft | 380 kts | 348° |
| 2026-05-05 12:04 | 30.21336 | -81.37917 | 35109 ft | 390 kts | 348° |
| 2026-05-05 12:05 | 30.26774 | -81.38243 | 35109 ft | 393 kts | 348° |
| 2026-05-05 12:05 | 30.32250 | -81.38558 | 35110 ft | 394 kts | 348° |
| 2026-05-05 12:06 | 30.37727 | -81.38872 | 35108 ft | 394 kts | 349° |
| 2026-05-05 12:06 | 30.43210 | -81.39179 | 35108 ft | 395 kts | 348° |
| 2026-05-05 12:07 | 30.48664 | -81.39485 | 35107 ft | 396 kts | 349° |
| 2026-05-05 12:07 | 30.54171 | -81.39779 | 35103 ft | 396 kts | 349° |
| 2026-05-05 12:08 | 30.59692 | -81.40071 | 35110 ft | 398 kts | 349° |
| 2026-05-05 12:08 | 30.65227 | -81.40363 | 35127 ft | 398 kts | 349° |
| 2026-05-05 12:09 | 30.70731 | -81.40650 | 35150 ft | 394 kts | 349° |
| 2026-05-05 12:09 | 30.76194 | -81.40938 | 35148 ft | 392 kts | 349° |
| 2026-05-05 12:10 | 30.81625 | -81.41227 | 35140 ft | 390 kts | 349° |
| 2026-05-05 12:10 | 30.87043 | -81.41517 | 35133 ft | 390 kts | 348° |
| 2026-05-05 12:11 | 30.92460 | -81.41805 | 35121 ft | 390 kts | 349° |
| 2026-05-05 12:11 | 30.97887 | -81.42090 | 35114 ft | 390 kts | 349° |
| 2026-05-05 12:12 | 31.03311 | -81.42376 | 35109 ft | 390 kts | 349° |
| 2026-05-05 12:12 | 31.08735 | -81.42674 | 35105 ft | 391 kts | 349° |
| 2026-05-05 12:13 | 31.14169 | -81.42971 | 35102 ft | 391 kts | 349° |
| 2026-05-05 12:13 | 31.19606 | -81.43267 | 35087 ft | 392 kts | 349° |
| 2026-05-05 12:14 | 31.25098 | -81.43110 | 35097 ft | 407 kts | 1° |
| 2026-05-05 12:14 | 31.27853 | -81.42147 | 35095 ft | 422 kts | 13° |
| 2026-05-05 12:14 | 31.30539 | -81.40703 | 35100 ft | 426 kts | 14° |
| 2026-05-05 12:15 | 31.35913 | -81.37772 | 35102 ft | 427 kts | 14° |
| 2026-05-05 12:15 | 31.41307 | -81.34848 | 35102 ft | 427 kts | 14° |
| 2026-05-05 12:16 | 31.46711 | -81.31925 | 35107 ft | 428 kts | 14° |
| 2026-05-05 12:16 | 31.52123 | -81.28983 | 35114 ft | 429 kts | 14° |
| 2026-05-05 12:17 | 31.57540 | -81.26029 | 35116 ft | 429 kts | 14° |
| 2026-05-05 12:17 | 31.62959 | -81.23074 | 35118 ft | 430 kts | 14° |
| 2026-05-05 12:18 | 31.68348 | -81.20125 | 35120 ft | 431 kts | 14° |
| 2026-05-05 12:18 | 31.73776 | -81.17153 | 35123 ft | 431 kts | 14° |
| 2026-05-05 12:19 | 31.79212 | -81.14183 | 35123 ft | 430 kts | 14° |
| 2026-05-05 12:19 | 31.84640 | -81.11217 | 35119 ft | 430 kts | 14° |
| 2026-05-05 12:20 | 31.90067 | -81.08244 | 35115 ft | 430 kts | 14° |
| 2026-05-05 12:20 | 31.95495 | -81.05254 | 35111 ft | 431 kts | 14° |
| 2026-05-05 12:21 | 32.00930 | -81.02262 | 35103 ft | 431 kts | 15° |
| 2026-05-05 12:21 | 32.06368 | -80.99235 | 35084 ft | 433 kts | 16° |
| 2026-05-05 12:22 | 32.11825 | -80.96177 | 35095 ft | 434 kts | 16° |
| 2026-05-05 12:22 | 32.17287 | -80.93105 | 35098 ft | 436 kts | 16° |
| 2026-05-05 12:23 | 32.22764 | -80.90023 | 35103 ft | 436 kts | 16° |
| 2026-05-05 12:23 | 32.28253 | -80.86943 | 35110 ft | 437 kts | 16° |
| 2026-05-05 12:24 | 32.32826 | -80.84367 | 35117 ft | 438 kts | 16° |
| 2026-05-05 12:24 | 32.39260 | -80.80738 | 35128 ft | 438 kts | 16° |
| 2026-05-05 12:25 | 32.43842 | -80.78157 | 35127 ft | 439 kts | 16° |
| 2026-05-05 12:25 | 32.49352 | -80.75055 | 35127 ft | 439 kts | 16° |
| 2026-05-05 12:26 | 32.54866 | -80.71940 | 35123 ft | 439 kts | 17° |
| 2026-05-05 12:26 | 32.60381 | -80.68819 | 35123 ft | 440 kts | 17° |
| 2026-05-05 12:27 | 32.65899 | -80.65686 | 35123 ft | 440 kts | 17° |
| 2026-05-05 12:27 | 32.71421 | -80.62549 | 35128 ft | 440 kts | 17° |
| 2026-05-05 12:28 | 32.76926 | -80.59335 | 35127 ft | 442 kts | 18° |
| 2026-05-05 12:28 | 32.82419 | -80.56037 | 35134 ft | 443 kts | 18° |
| 2026-05-05 12:29 | 32.87887 | -80.52757 | 35147 ft | 443 kts | 18° |
| 2026-05-05 12:29 | 32.93401 | -80.49476 | 35152 ft | 443 kts | 18° |
| 2026-05-05 12:30 | 32.98921 | -80.46189 | 35157 ft | 444 kts | 19° |
| 2026-05-05 12:30 | 33.04447 | -80.42898 | 35156 ft | 445 kts | 19° |
| 2026-05-05 12:31 | 33.09986 | -80.39587 | 35154 ft | 445 kts | 19° |
| 2026-05-05 12:31 | 33.15523 | -80.36267 | 35150 ft | 446 kts | 19° |
| 2026-05-05 12:32 | 33.21063 | -80.32938 | 35142 ft | 446 kts | 19° |
| 2026-05-05 12:32 | 33.26613 | -80.29607 | 35141 ft | 447 kts | 20° |
| 2026-05-05 12:33 | 33.32169 | -80.26265 | 35137 ft | 447 kts | 20° |
| 2026-05-05 12:33 | 33.37737 | -80.22913 | 35138 ft | 448 kts | 20° |
| 2026-05-05 12:34 | 33.43305 | -80.19557 | 35135 ft | 449 kts | 20° |
| 2026-05-05 12:34 | 33.48893 | -80.16183 | 35135 ft | 450 kts | 21° |
| 2026-05-05 12:35 | 33.54482 | -80.12807 | 35140 ft | 450 kts | 21° |
| 2026-05-05 12:35 | 33.60082 | -80.09418 | 35142 ft | 451 kts | 21° |
| 2026-05-05 12:36 | 33.65690 | -80.06015 | 35139 ft | 452 kts | 21° |
| 2026-05-05 12:36 | 33.71307 | -80.02601 | 35141 ft | 453 kts | 22° |
| 2026-05-05 12:37 | 33.76933 | -79.99179 | 35141 ft | 453 kts | 22° |
| 2026-05-05 12:37 | 33.82566 | -79.95743 | 35140 ft | 454 kts | 22° |
| 2026-05-05 12:38 | 33.88201 | -79.92302 | 35145 ft | 454 kts | 22° |
| 2026-05-05 12:38 | 33.93840 | -79.88856 | 35148 ft | 455 kts | 22° |
| 2026-05-05 12:39 | 33.99483 | -79.85402 | 35150 ft | 455 kts | 22° |
| 2026-05-05 12:39 | 34.05128 | -79.81946 | 35148 ft | 455 kts | 22° |
| 2026-05-05 12:40 | 34.10774 | -79.78480 | 35146 ft | 455 kts | 22° |
| 2026-05-05 12:40 | 34.16423 | -79.75008 | 35147 ft | 455 kts | 22° |
| 2026-05-05 12:41 | 34.22067 | -79.71537 | 35148 ft | 455 kts | 22° |
| 2026-05-05 12:41 | 34.27713 | -79.68060 | 35149 ft | 456 kts | 22° |
| 2026-05-05 12:42 | 34.33324 | -79.64597 | 35150 ft | 456 kts | 22° |
| 2026-05-05 12:42 | 34.38971 | -79.61100 | 35150 ft | 456 kts | 22° |
| 2026-05-05 12:43 | 34.44613 | -79.57600 | 35149 ft | 456 kts | 22° |
| 2026-05-05 12:43 | 34.50255 | -79.54095 | 35147 ft | 456 kts | 22° |
| 2026-05-05 12:44 | 34.55937 | -79.50567 | 35147 ft | 456 kts | 23° |
| 2026-05-05 12:44 | 34.61492 | -79.46918 | 35142 ft | 457 kts | 25° |
| 2026-05-05 12:45 | 34.67030 | -79.43112 | 35146 ft | 457 kts | 25° |
| 2026-05-05 12:45 | 34.72886 | -79.40415 | 35146 ft | 446 kts | 6° |
| 2026-05-05 12:46 | 34.78988 | -79.39130 | 35139 ft | 445 kts | 5° |
| 2026-05-05 12:46 | 34.85099 | -79.37831 | 35148 ft | 446 kts | 5° |
| 2026-05-05 12:47 | 34.91211 | -79.36520 | 35147 ft | 446 kts | 6° |
| 2026-05-05 12:47 | 34.97328 | -79.35208 | 35140 ft | 447 kts | 6° |
| 2026-05-05 12:48 | 35.03452 | -79.33895 | 35134 ft | 447 kts | 6° |
| 2026-05-05 12:48 | 35.09582 | -79.32580 | 35127 ft | 447 kts | 6° |
| 2026-05-05 12:49 | 35.15707 | -79.31269 | 35127 ft | 447 kts | 6° |
| 2026-05-05 12:49 | 35.21831 | -79.29957 | 35131 ft | 447 kts | 6° |
| 2026-05-05 12:50 | 35.27951 | -79.28642 | 35134 ft | 447 kts | 6° |
| 2026-05-05 12:50 | 35.34072 | -79.27320 | 35130 ft | 447 kts | 6° |
| 2026-05-05 12:51 | 35.40192 | -79.25997 | 35137 ft | 446 kts | 6° |
| 2026-05-05 12:51 | 35.46314 | -79.24674 | 35131 ft | 447 kts | 6° |
| 2026-05-05 12:52 | 35.52433 | -79.23354 | 35134 ft | 447 kts | 6° |
| 2026-05-05 12:52 | 35.58553 | -79.22029 | 35141 ft | 447 kts | 6° |
| 2026-05-05 12:53 | 35.64674 | -79.20696 | 35140 ft | 447 kts | 6° |
| 2026-05-05 12:53 | 35.70761 | -79.19365 | 35146 ft | 448 kts | 7° |
| 2026-05-05 12:54 | 35.76657 | -79.16627 | 35132 ft | 457 kts | 27° |
| 2026-05-05 12:54 | 35.79275 | -79.14462 | 35130 ft | 460 kts | 31° |
| 2026-05-05 12:55 | 35.84501 | -79.09908 | 35127 ft | 460 kts | 31° |
| 2026-05-05 12:55 | 35.89739 | -79.05357 | 35125 ft | 461 kts | 31° |
| 2026-05-05 12:56 | 35.94979 | -79.00788 | 35126 ft | 462 kts | 32° |
| 2026-05-05 12:56 | 36.00231 | -78.96205 | 35124 ft | 462 kts | 32° |
| 2026-05-05 12:57 | 36.05480 | -78.91612 | 35125 ft | 463 kts | 32° |
| 2026-05-05 12:57 | 36.10728 | -78.87002 | 35124 ft | 463 kts | 32° |
| 2026-05-05 12:58 | 36.15976 | -78.82384 | 35120 ft | 463 kts | 32° |
| 2026-05-05 12:58 | 36.21230 | -78.77756 | 35119 ft | 464 kts | 32° |
| 2026-05-05 12:59 | 36.26484 | -78.73125 | 35121 ft | 464 kts | 32° |
| 2026-05-05 12:59 | 36.31757 | -78.68474 | 35121 ft | 465 kts | 32° |
| 2026-05-05 13:00 | 36.39670 | -78.61474 | 35121 ft | 466 kts | 32° |
| 2026-05-05 13:01 | 36.50323 | -78.52426 | 35120 ft | 465 kts | 28° |
| 2026-05-05 13:01 | 36.55835 | -78.48233 | 35110 ft | 464 kts | 28° |
| 2026-05-05 13:02 | 36.61338 | -78.44022 | 35107 ft | 464 kts | 28° |
| 2026-05-05 13:02 | 36.66807 | -78.39735 | 35106 ft | 464 kts | 29° |
| 2026-05-05 13:03 | 36.72262 | -78.35412 | 35107 ft | 465 kts | 29° |
| 2026-05-05 13:03 | 36.77725 | -78.31087 | 35108 ft | 465 kts | 29° |
| 2026-05-05 13:04 | 36.83190 | -78.26770 | 35113 ft | 465 kts | 29° |
| 2026-05-05 13:04 | 36.88653 | -78.22455 | 35110 ft | 464 kts | 29° |
| 2026-05-05 13:05 | 36.94112 | -78.18133 | 35106 ft | 464 kts | 29° |
| 2026-05-05 13:05 | 36.99565 | -78.13801 | 35103 ft | 465 kts | 29° |
| 2026-05-05 13:06 | 37.04979 | -78.09490 | 35097 ft | 464 kts | 29° |
| 2026-05-05 13:06 | 37.10463 | -78.05121 | 35084 ft | 464 kts | 29° |
| 2026-05-05 13:07 | 37.15911 | -78.00781 | 35079 ft | 464 kts | 29° |
| 2026-05-05 13:07 | 37.21322 | -77.96452 | 35075 ft | 464 kts | 29° |
| 2026-05-05 13:08 | 37.26764 | -77.92086 | 35069 ft | 465 kts | 29° |
| 2026-05-05 13:08 | 37.32237 | -77.87711 | 35068 ft | 466 kts | 29° |
| 2026-05-05 13:09 | 37.37696 | -77.83326 | 35071 ft | 466 kts | 29° |
| 2026-05-05 13:09 | 37.43158 | -77.78918 | 35079 ft | 467 kts | 29° |
| 2026-05-05 13:10 | 37.48626 | -77.74501 | 35082 ft | 466 kts | 29° |
| 2026-05-05 13:10 | 37.54088 | -77.70089 | 35077 ft | 467 kts | 29° |
| 2026-05-05 13:11 | 37.59555 | -77.65679 | 35082 ft | 467 kts | 29° |
| 2026-05-05 13:11 | 37.65026 | -77.61265 | 35085 ft | 467 kts | 29° |
| 2026-05-05 13:12 | 37.70490 | -77.56847 | 35084 ft | 466 kts | 29° |
| 2026-05-05 13:12 | 37.75946 | -77.52418 | 35075 ft | 466 kts | 29° |
| 2026-05-05 13:13 | 37.80476 | -77.48726 | 35080 ft | 466 kts | 30° |
| 2026-05-05 13:13 | 37.85921 | -77.44283 | 35079 ft | 466 kts | 29° |
| 2026-05-05 13:14 | 37.91363 | -77.39847 | 35072 ft | 465 kts | 29° |
| 2026-05-05 13:14 | 37.96803 | -77.35408 | 35064 ft | 465 kts | 29° |
| 2026-05-05 13:15 | 38.02245 | -77.30961 | 35063 ft | 465 kts | 30° |
| 2026-05-05 13:15 | 38.07684 | -77.26515 | 35057 ft | 465 kts | 30° |
| 2026-05-05 13:16 | 38.13117 | -77.22062 | 35047 ft | 465 kts | 30° |
| 2026-05-05 13:16 | 38.18547 | -77.17605 | 35044 ft | 464 kts | 30° |
| 2026-05-05 13:17 | 38.23974 | -77.13149 | 35042 ft | 465 kts | 30° |
| 2026-05-05 13:17 | 38.29398 | -77.08666 | 35045 ft | 465 kts | 31° |
| 2026-05-05 13:18 | 38.34659 | -77.03842 | 35038 ft | 467 kts | 34° |
| 2026-05-05 13:18 | 38.39778 | -76.98752 | 35036 ft | 467 kts | 35° |
| 2026-05-05 13:19 | 38.44909 | -76.93675 | 35035 ft | 466 kts | 34° |
| 2026-05-05 13:19 | 38.50078 | -76.88678 | 35030 ft | 466 kts | 34° |
| 2026-05-05 13:20 | 38.55256 | -76.83703 | 35026 ft | 465 kts | 34° |
| 2026-05-05 13:20 | 38.60418 | -76.78719 | 35023 ft | 465 kts | 34° |
| 2026-05-05 13:21 | 38.65543 | -76.73742 | 35022 ft | 465 kts | 34° |
| 2026-05-05 13:21 | 38.70699 | -76.68723 | 35016 ft | 466 kts | 34° |
| 2026-05-05 13:22 | 38.75853 | -76.63691 | 35021 ft | 466 kts | 34° |
| 2026-05-05 13:22 | 38.81011 | -76.58653 | 35013 ft | 466 kts | 34° |
| 2026-05-05 13:23 | 38.86171 | -76.53610 | 35010 ft | 466 kts | 34° |
| 2026-05-05 13:23 | 38.91319 | -76.48567 | 35015 ft | 466 kts | 35° |
| 2026-05-05 13:24 | 38.96477 | -76.43506 | 35015 ft | 466 kts | 35° |
| 2026-05-05 13:24 | 39.01616 | -76.38452 | 35018 ft | 464 kts | 35° |
| 2026-05-05 13:25 | 39.06583 | -76.33190 | 35027 ft | 462 kts | 39° |
| 2026-05-05 13:25 | 39.08970 | -76.30402 | 34403 ft | 467 kts | 41° |
| 2026-05-05 13:25 | 39.11372 | -76.27511 | 33162 ft | 475 kts | 41° |
| 2026-05-05 13:26 | 39.13794 | -76.24565 | 31653 ft | 482 kts | 41° |
| 2026-05-05 13:26 | 39.16234 | -76.21626 | 30460 ft | 479 kts | 41° |
| 2026-05-05 13:26 | 39.18673 | -76.18727 | 29326 ft | 474 kts | 41° |
| 2026-05-05 13:26 | 39.21064 | -76.15920 | 28328 ft | 467 kts | 40° |
| 2026-05-05 13:27 | 39.23492 | -76.13091 | 27754 ft | 462 kts | 40° |
| 2026-05-05 13:27 | 39.25870 | -76.10329 | 27161 ft | 458 kts | 40° |
| 2026-05-05 13:27 | 39.28219 | -76.07582 | 26700 ft | 452 kts | 40° |
| 2026-05-05 13:27 | 39.30499 | -76.04864 | 26448 ft | 441 kts | 40° |
| 2026-05-05 13:28 | 39.32727 | -76.02170 | 26201 ft | 437 kts | 41° |
| 2026-05-05 13:28 | 39.34907 | -75.99515 | 25987 ft | 436 kts | 41° |
| 2026-05-05 13:28 | 39.37108 | -75.96832 | 25986 ft | 435 kts | 41° |
| 2026-05-05 13:28 | 39.39313 | -75.94153 | 25989 ft | 435 kts | 41° |
| 2026-05-05 13:29 | 39.41521 | -75.91479 | 25988 ft | 435 kts | 40° |
| 2026-05-05 13:29 | 39.43732 | -75.88808 | 25989 ft | 435 kts | 40° |
| 2026-05-05 13:29 | 39.45944 | -75.86139 | 25989 ft | 435 kts | 40° |
| 2026-05-05 13:29 | 39.48152 | -75.83466 | 25990 ft | 435 kts | 40° |
| 2026-05-05 13:30 | 39.50361 | -75.80783 | 25978 ft | 435 kts | 41° |
| 2026-05-05 13:30 | 39.52564 | -75.78101 | 25981 ft | 435 kts | 41° |
| 2026-05-05 13:30 | 39.54767 | -75.75417 | 25980 ft | 435 kts | 41° |
| 2026-05-05 13:30 | 39.56971 | -75.72733 | 25980 ft | 435 kts | 41° |
| 2026-05-05 13:31 | 39.59175 | -75.70049 | 25981 ft | 435 kts | 41° |
| 2026-05-05 13:31 | 39.61379 | -75.67363 | 25980 ft | 435 kts | 41° |
| 2026-05-05 13:31 | 39.63578 | -75.64675 | 25980 ft | 435 kts | 41° |
| 2026-05-05 13:31 | 39.65780 | -75.61983 | 25980 ft | 435 kts | 41° |
| 2026-05-05 13:32 | 39.67986 | -75.59285 | 25980 ft | 435 kts | 41° |
| 2026-05-05 13:32 | 39.70185 | -75.56597 | 25980 ft | 435 kts | 41° |
| 2026-05-05 13:32 | 39.72389 | -75.53896 | 25980 ft | 435 kts | 41° |
| 2026-05-05 13:32 | 39.74589 | -75.51197 | 25981 ft | 435 kts | 41° |
| 2026-05-05 13:33 | 39.76790 | -75.48493 | 25980 ft | 435 kts | 41° |
| 2026-05-05 13:33 | 39.78985 | -75.45791 | 25980 ft | 435 kts | 41° |
| 2026-05-05 13:33 | 39.81156 | -75.43118 | 25980 ft | 435 kts | 41° |
| 2026-05-05 13:33 | 39.83353 | -75.40414 | 25980 ft | 435 kts | 41° |
| 2026-05-05 13:34 | 39.85549 | -75.37710 | 25980 ft | 435 kts | 41° |
| 2026-05-05 13:34 | 39.87746 | -75.35005 | 25980 ft | 435 kts | 41° |
| 2026-05-05 13:34 | 39.89941 | -75.32297 | 25980 ft | 434 kts | 41° |
| 2026-05-05 13:34 | 39.92136 | -75.29589 | 25980 ft | 435 kts | 41° |
| 2026-05-05 13:35 | 39.94330 | -75.26880 | 25980 ft | 434 kts | 41° |
| 2026-05-05 13:35 | 39.96522 | -75.24166 | 25980 ft | 434 kts | 41° |
| 2026-05-05 13:35 | 39.98706 | -75.21457 | 25980 ft | 434 kts | 41° |
| 2026-05-05 13:35 | 40.00900 | -75.18734 | 25980 ft | 435 kts | 41° |
| 2026-05-05 13:36 | 40.03084 | -75.16021 | 25979 ft | 434 kts | 42° |
| 2026-05-05 13:36 | 40.05274 | -75.13303 | 25979 ft | 435 kts | 42° |
| 2026-05-05 13:36 | 40.07463 | -75.10580 | 25980 ft | 435 kts | 42° |
| 2026-05-05 13:36 | 40.09658 | -75.07857 | 25980 ft | 435 kts | 42° |
| 2026-05-05 13:37 | 40.11852 | -75.05130 | 25980 ft | 435 kts | 42° |
| 2026-05-05 13:37 | 40.14041 | -75.02404 | 25979 ft | 435 kts | 42° |
| 2026-05-05 13:37 | 40.16227 | -74.99675 | 25980 ft | 435 kts | 42° |
| 2026-05-05 13:37 | 40.18411 | -74.96939 | 25972 ft | 435 kts | 42° |
| 2026-05-05 13:38 | 40.20595 | -74.94199 | 25970 ft | 435 kts | 43° |
| 2026-05-05 13:38 | 40.22777 | -74.91461 | 25912 ft | 434 kts | 43° |
| 2026-05-05 13:38 | 40.24948 | -74.88740 | 24779 ft | 434 kts | 42° |
| 2026-05-05 13:38 | 40.27147 | -74.85988 | 23429 ft | 440 kts | 42° |
| 2026-05-05 13:39 | 40.29344 | -74.83233 | 22296 ft | 436 kts | 42° |
| 2026-05-05 13:39 | 40.31523 | -74.80501 | 21237 ft | 432 kts | 42° |
| 2026-05-05 13:39 | 40.33677 | -74.77797 | 20382 ft | 424 kts | 42° |
| 2026-05-05 13:39 | 40.35785 | -74.75144 | 19365 ft | 419 kts | 42° |
| 2026-05-05 13:40 | 40.37888 | -74.72491 | 18248 ft | 418 kts | 42° |
| 2026-05-05 13:40 | 40.39991 | -74.69890 | 17474 ft | 411 kts | 37° |
| 2026-05-05 13:40 | 40.42315 | -74.67784 | 16962 ft | 403 kts | 25° |
| 2026-05-05 13:40 | 40.44857 | -74.66352 | 16450 ft | 394 kts | 13° |
| 2026-05-05 13:41 | 40.47424 | -74.65566 | 15952 ft | 375 kts | 7° |
| 2026-05-05 13:41 | 40.49927 | -74.64902 | 15474 ft | 359 kts | 7° |
| 2026-05-05 13:41 | 40.52345 | -74.64250 | 15013 ft | 354 kts | 7° |
| 2026-05-05 13:41 | 40.54757 | -74.63605 | 14545 ft | 353 kts | 7° |
| 2026-05-05 13:42 | 40.57161 | -74.62964 | 14066 ft | 352 kts | 7° |
| 2026-05-05 13:42 | 40.59562 | -74.62321 | 13598 ft | 352 kts | 7° |
| 2026-05-05 13:42 | 40.61959 | -74.61676 | 13129 ft | 352 kts | 7° |
| 2026-05-05 13:42 | 40.64359 | -74.61033 | 12656 ft | 352 kts | 7° |
| 2026-05-05 13:43 | 40.66752 | -74.60391 | 12202 ft | 350 kts | 7° |
| 2026-05-05 13:43 | 40.69137 | -74.59754 | 11712 ft | 350 kts | 7° |
| 2026-05-05 13:43 | 40.71518 | -74.59117 | 11266 ft | 349 kts | 7° |
| 2026-05-05 13:43 | 40.73894 | -74.58480 | 10800 ft | 348 kts | 7° |
| 2026-05-05 13:44 | 40.76269 | -74.57843 | 10360 ft | 347 kts | 7° |
| 2026-05-05 13:44 | 40.78594 | -74.57214 | 10219 ft | 335 kts | 7° |
| 2026-05-05 13:44 | 40.80842 | -74.56605 | 10094 ft | 325 kts | 7° |
| 2026-05-05 13:44 | 40.83027 | -74.55998 | 9931 ft | 318 kts | 9° |
| 2026-05-05 13:45 | 40.85023 | -74.54771 | 9675 ft | 321 kts | 37° |
| 2026-05-05 13:45 | 40.86393 | -74.52467 | 9275 ft | 323 kts | 68° |
| 2026-05-05 13:45 | 40.87061 | -74.49643 | 8859 ft | 323 kts | 76° |
| 2026-05-05 13:45 | 40.87648 | -74.46781 | 8520 ft | 321 kts | 77° |
| 2026-05-05 13:46 | 40.88223 | -74.43933 | 8119 ft | 322 kts | 77° |
| 2026-05-05 13:46 | 40.88800 | -74.41092 | 7868 ft | 318 kts | 77° |
| 2026-05-05 13:46 | 40.89373 | -74.38272 | 7520 ft | 317 kts | 77° |
| 2026-05-05 13:46 | 40.89946 | -74.35461 | 7186 ft | 316 kts | 77° |
| 2026-05-05 13:47 | 40.90520 | -74.32662 | 6755 ft | 315 kts | 77° |
| 2026-05-05 13:47 | 40.91094 | -74.29874 | 6426 ft | 314 kts | 76° |
| 2026-05-05 13:47 | 40.91667 | -74.27099 | 6058 ft | 312 kts | 76° |
| 2026-05-05 13:47 | 40.92232 | -74.24334 | 5681 ft | 310 kts | 77° |
| 2026-05-05 13:48 | 40.92788 | -74.21586 | 5302 ft | 309 kts | 77° |
| 2026-05-05 13:48 | 40.93300 | -74.18843 | 4913 ft | 305 kts | 85° |
| 2026-05-05 13:48 | 40.93122 | -74.16127 | 4576 ft | 292 kts | 113° |
| 2026-05-05 13:48 | 40.92123 | -74.13883 | 4221 ft | 278 kts | 139° |
| 2026-05-05 13:49 | 40.90600 | -74.12416 | 3766 ft | 269 kts | 156° |
| 2026-05-05 13:49 | 40.88970 | -74.11207 | 3311 ft | 267 kts | 156° |
| 2026-05-05 13:49 | 40.87377 | -74.10025 | 3106 ft | 257 kts | 156° |
| 2026-05-05 13:49 | 40.85864 | -74.08892 | 3013 ft | 242 kts | 156° |
| 2026-05-05 13:50 | 40.84423 | -74.08000 | 2968 ft | 217 kts | 173° |
| 2026-05-05 13:50 | 40.83050 | -74.07893 | 2814 ft | 200 kts | 194° |
| 2026-05-05 13:50 | 40.81771 | -74.08486 | 2585 ft | 188 kts | 208° |
| 2026-05-05 13:50 | 40.80590 | -74.09244 | 2349 ft | 185 kts | 207° |
| 2026-05-05 13:51 | 40.79448 | -74.09973 | 2131 ft | 178 kts | 207° |
| 2026-05-05 13:51 | 40.78366 | -74.10665 | 1879 ft | 167 kts | 206° |
| 2026-05-05 13:51 | 40.77369 | -74.11302 | 1674 ft | 152 kts | 206° |
| 2026-05-05 13:51 | 40.76492 | -74.11862 | 1483 ft | 138 kts | 207° |
| 2026-05-05 13:52 | 40.75640 | -74.12405 | 1301 ft | 135 kts | 207° |
| 2026-05-05 13:52 | 40.74796 | -74.12943 | 1117 ft | 133 kts | 206° |
| 2026-05-05 13:52 | 40.73991 | -74.13456 | 952 ft | 132 kts | 207° |
| 2026-05-05 13:52 | 40.73172 | -74.13978 | 781 ft | 131 kts | 206° |
| 2026-05-05 13:53 | 40.72342 | -74.14504 | 598 ft | 131 kts | 206° |
| 2026-05-05 13:53 | 40.71520 | -74.15027 | 418 ft | 131 kts | 206° |
| 2026-05-05 13:53 | 40.70696 | -74.15552 | 253 ft | 132 kts | 206° |
| 2026-05-05 13:53 | 40.69883 | -74.16074 | 69 ft | 132 kts | 207° |
| 2026-05-05 13:54 | 40.69106 | -74.16568 | 23 ft | 106 kts | 205° |
| 2026-05-05 13:54 | 40.68550 | -74.16920 | 20 ft | 73 kts | 206° |
| 2026-05-05 13:54 | 40.68304 | -74.17086 | 20 ft | 14 kts | 229° |
| 2026-05-05 13:54 | 40.68255 | -74.17194 | 21 ft | 15 kts | 241° |
| 2026-05-05 13:55 | 40.68195 | -74.17307 | 21 ft | 15 kts | 227° |
| 2026-05-05 13:55 | 40.68145 | -74.17436 | 21 ft | 16 kts | 267° |
| 2026-05-05 13:55 | 40.68184 | -74.17552 | 20 ft | 14 kts | 296° |
| 2026-05-05 13:55 | 40.68236 | -74.17671 | 21 ft | 16 kts | 315° |
| 2026-05-05 13:56 | 40.68335 | -74.17714 | 23 ft | 16 kts | 21° |
| 2026-05-05 13:56 | 40.68445 | -74.17649 | 20 ft | 18 kts | 25° |
| 2026-05-05 13:56 | 40.68558 | -74.17578 | 22 ft | 15 kts | 25° |
| 2026-05-05 13:56 | 40.68659 | -74.17515 | 20 ft | 17 kts | 26° |
| 2026-05-05 13:57 | 40.68771 | -74.17442 | 22 ft | 18 kts | 26° |
| 2026-05-05 13:57 | 40.68829 | -74.17477 | 22 ft | 8 kts | 295° |
| 2026-05-05 13:57 | 40.68855 | -74.17541 | 20 ft | 8 kts | 311° |
| 2026-05-05 13:57 | 40.68893 | -74.17549 | 21 ft | 5 kts | 25° |
| 2026-05-05 13:58 | 40.68923 | -74.17529 | 22 ft | 0 kts | 26° |